sensor_id;sensor_type;location;lat;lon;timestamp;P1;durP1;ratioP1;P2;durP2;ratioP2
75007;SDS011;63554;48.940;12.050;2023-04-21T00:01:32;8.05;;;4.63;;
75007;SDS011;63554;48.940;12.050;2023-04-21T00:05:35;8.95;;;4.68;;
75007;SDS011;63554;48.940;12.050;2023-04-21T00:09:40;6.25;;;4.18;;
75007;SDS011;63554;48.940;12.050;2023-04-21T00:13:43;8.68;;;5.18;;
75007;SDS011;63554;48.940;12.050;2023-04-21T00:17:46;7.45;;;4.43;;
75007;SDS011;63554;48.940;12.050;2023-04-21T00:21:48;6.55;;;4.57;;
75007;SDS011;63554;48.940;12.050;2023-04-21T00:25:52;8.10;;;5.07;;
75007;SDS011;63554;48.940;12.050;2023-04-21T00:29:55;7.35;;;4.55;;
75007;SDS011;63554;48.940;12.050;2023-04-21T00:33:58;7.75;;;5.53;;
75007;SDS011;63554;48.940;12.050;2023-04-21T00:38:01;5.82;;;4.07;;
75007;SDS011;63554;48.940;12.050;2023-04-21T00:42:05;8.95;;;4.57;;
75007;SDS011;63554;48.940;12.050;2023-04-21T00:46:07;6.10;;;3.92;;
75007;SDS011;63554;48.940;12.050;2023-04-21T00:50:10;5.40;;;4.18;;
75007;SDS011;63554;48.940;12.050;2023-04-21T00:54:13;5.82;;;4.60;;
75007;SDS011;63554;48.940;12.050;2023-04-21T00:58:17;7.47;;;5.00;;
75007;SDS011;63554;48.940;12.050;2023-04-21T01:02:20;8.40;;;4.65;;
75007;SDS011;63554;48.940;12.050;2023-04-21T01:06:24;6.47;;;3.92;;
75007;SDS011;63554;48.940;12.050;2023-04-21T01:10:29;7.97;;;4.20;;
75007;SDS011;63554;48.940;12.050;2023-04-21T01:14:33;8.02;;;5.13;;
75007;SDS011;63554;48.940;12.050;2023-04-21T01:18:36;6.40;;;4.50;;
75007;SDS011;63554;48.940;12.050;2023-04-21T01:22:40;7.28;;;4.72;;
75007;SDS011;63554;48.940;12.050;2023-04-21T01:26:44;7.13;;;3.80;;
75007;SDS011;63554;48.940;12.050;2023-04-21T01:30:50;6.32;;;4.10;;
75007;SDS011;63554;48.940;12.050;2023-04-21T01:34:53;7.75;;;4.30;;
75007;SDS011;63554;48.940;12.050;2023-04-21T01:38:58;7.63;;;4.63;;
75007;SDS011;63554;48.940;12.050;2023-04-21T01:43:01;7.95;;;4.72;;
75007;SDS011;63554;48.940;12.050;2023-04-21T01:47:05;6.60;;;3.95;;
75007;SDS011;63554;48.940;12.050;2023-04-21T01:51:08;6.07;;;3.90;;
75007;SDS011;63554;48.940;12.050;2023-04-21T01:55:12;6.18;;;4.40;;
75007;SDS011;63554;48.940;12.050;2023-04-21T01:59:15;5.15;;;4.13;;
75007;SDS011;63554;48.940;12.050;2023-04-21T02:03:18;7.72;;;5.20;;
75007;SDS011;63554;48.940;12.050;2023-04-21T02:07:21;7.50;;;4.38;;
75007;SDS011;63554;48.940;12.050;2023-04-21T02:11:25;7.75;;;4.10;;
75007;SDS011;63554;48.940;12.050;2023-04-21T02:15:28;6.88;;;4.45;;
75007;SDS011;63554;48.940;12.050;2023-04-21T02:19:31;7.35;;;4.28;;
75007;SDS011;63554;48.940;12.050;2023-04-21T02:23:33;6.90;;;3.28;;
75007;SDS011;63554;48.940;12.050;2023-04-21T02:27:37;5.18;;;3.92;;
75007;SDS011;63554;48.940;12.050;2023-04-21T02:31:40;6.00;;;4.22;;
75007;SDS011;63554;48.940;12.050;2023-04-21T02:36:01;7.03;;;3.78;;
75007;SDS011;63554;48.940;12.050;2023-04-21T02:40:05;6.60;;;4.35;;
75007;SDS011;63554;48.940;12.050;2023-04-21T02:44:10;9.65;;;4.55;;
75007;SDS011;63554;48.940;12.050;2023-04-21T02:48:12;5.82;;;3.45;;
75007;SDS011;63554;48.940;12.050;2023-04-21T02:52:15;7.38;;;3.80;;
75007;SDS011;63554;48.940;12.050;2023-04-21T02:56:17;6.10;;;4.07;;
75007;SDS011;63554;48.940;12.050;2023-04-21T03:00:21;7.47;;;4.15;;
75007;SDS011;63554;48.940;12.050;2023-04-21T03:04:24;6.20;;;4.18;;
75007;SDS011;63554;48.940;12.050;2023-04-21T03:08:27;6.55;;;4.38;;
75007;SDS011;63554;48.940;12.050;2023-04-21T03:12:31;6.30;;;3.95;;
75007;SDS011;63554;48.940;12.050;2023-04-21T03:16:35;6.22;;;3.95;;
75007;SDS011;63554;48.940;12.050;2023-04-21T03:20:38;8.73;;;5.65;;
75007;SDS011;63554;48.940;12.050;2023-04-21T03:24:40;9.50;;;4.75;;
75007;SDS011;63554;48.940;12.050;2023-04-21T03:28:43;6.60;;;3.55;;
75007;SDS011;63554;48.940;12.050;2023-04-21T03:32:47;5.97;;;3.83;;
75007;SDS011;63554;48.940;12.050;2023-04-21T03:36:50;6.00;;;3.50;;
75007;SDS011;63554;48.940;12.050;2023-04-21T03:40:53;4.95;;;3.92;;
75007;SDS011;63554;48.940;12.050;2023-04-21T03:44:55;6.18;;;4.00;;
75007;SDS011;63554;48.940;12.050;2023-04-21T03:49:03;3.72;;;3.13;;
75007;SDS011;63554;48.940;12.050;2023-04-21T03:53:06;8.50;;;4.18;;
75007;SDS011;63554;48.940;12.050;2023-04-21T03:57:09;7.05;;;4.43;;
75007;SDS011;63554;48.940;12.050;2023-04-21T04:01:11;6.95;;;4.35;;
75007;SDS011;63554;48.940;12.050;2023-04-21T04:05:15;6.03;;;3.63;;
75007;SDS011;63554;48.940;12.050;2023-04-21T04:09:18;6.07;;;3.97;;
75007;SDS011;63554;48.940;12.050;2023-04-21T04:13:21;3.35;;;3.03;;
75007;SDS011;63554;48.940;12.050;2023-04-21T04:17:24;6.63;;;4.15;;
75007;SDS011;63554;48.940;12.050;2023-04-21T04:21:28;6.40;;;3.60;;
75007;SDS011;63554;48.940;12.050;2023-04-21T04:25:32;4.38;;;2.88;;
75007;SDS011;63554;48.940;12.050;2023-04-21T04:29:35;13.07;;;3.88;;
75007;SDS011;63554;48.940;12.050;2023-04-21T04:33:39;4.85;;;3.50;;
75007;SDS011;63554;48.940;12.050;2023-04-21T04:37:43;4.47;;;3.75;;
75007;SDS011;63554;48.940;12.050;2023-04-21T04:41:46;6.07;;;4.55;;
75007;SDS011;63554;48.940;12.050;2023-04-21T04:45:49;3.53;;;3.20;;
75007;SDS011;63554;48.940;12.050;2023-04-21T04:49:52;7.45;;;4.22;;
75007;SDS011;63554;48.940;12.050;2023-04-21T04:53:56;5.60;;;3.58;;
75007;SDS011;63554;48.940;12.050;2023-04-21T04:57:59;10.07;;;4.18;;
75007;SDS011;63554;48.940;12.050;2023-04-21T05:02:02;5.85;;;3.58;;
75007;SDS011;63554;48.940;12.050;2023-04-21T05:06:05;11.18;;;4.72;;
75007;SDS011;63554;48.940;12.050;2023-04-21T05:10:09;7.07;;;4.72;;
75007;SDS011;63554;48.940;12.050;2023-04-21T05:14:11;8.25;;;4.65;;
75007;SDS011;63554;48.940;12.050;2023-04-21T05:18:14;4.90;;;3.60;;
75007;SDS011;63554;48.940;12.050;2023-04-21T05:22:17;7.40;;;4.47;;
75007;SDS011;63554;48.940;12.050;2023-04-21T05:26:20;6.05;;;4.35;;
75007;SDS011;63554;48.940;12.050;2023-04-21T05:30:23;6.60;;;4.75;;
75007;SDS011;63554;48.940;12.050;2023-04-21T05:34:26;7.13;;;4.80;;
75007;SDS011;63554;48.940;12.050;2023-04-21T05:38:29;8.77;;;4.32;;
75007;SDS011;63554;48.940;12.050;2023-04-21T05:42:33;6.93;;;3.45;;
75007;SDS011;63554;48.940;12.050;2023-04-21T05:46:36;6.85;;;3.95;;
75007;SDS011;63554;48.940;12.050;2023-04-21T05:50:39;6.43;;;4.65;;
75007;SDS011;63554;48.940;12.050;2023-04-21T05:54:41;11.52;;;4.03;;
75007;SDS011;63554;48.940;12.050;2023-04-21T05:58:45;5.30;;;4.20;;
75007;SDS011;63554;48.940;12.050;2023-04-21T06:02:48;7.32;;;4.68;;
75007;SDS011;63554;48.940;12.050;2023-04-21T06:06:51;9.70;;;5.10;;
75007;SDS011;63554;48.940;12.050;2023-04-21T06:10:54;8.73;;;4.97;;
75007;SDS011;63554;48.940;12.050;2023-04-21T06:14:58;15.63;;;7.35;;
75007;SDS011;63554;48.940;12.050;2023-04-21T06:19:01;10.57;;;4.68;;
75007;SDS011;63554;48.940;12.050;2023-04-21T06:23:04;7.47;;;4.85;;
75007;SDS011;63554;48.940;12.050;2023-04-21T06:27:09;7.32;;;4.88;;
75007;SDS011;63554;48.940;12.050;2023-04-21T06:31:14;6.65;;;4.57;;
75007;SDS011;63554;48.940;12.050;2023-04-21T06:35:17;7.60;;;4.43;;
75007;SDS011;63554;48.940;12.050;2023-04-21T06:39:20;6.75;;;5.13;;
75007;SDS011;63554;48.940;12.050;2023-04-21T06:43:23;7.60;;;3.85;;
75007;SDS011;63554;48.940;12.050;2023-04-21T06:47:27;6.90;;;4.43;;
75007;SDS011;63554;48.940;12.050;2023-04-21T06:51:30;6.35;;;3.65;;
75007;SDS011;63554;48.940;12.050;2023-04-21T06:55:33;6.03;;;3.65;;
75007;SDS011;63554;48.940;12.050;2023-04-21T06:59:35;6.32;;;4.15;;
75007;SDS011;63554;48.940;12.050;2023-04-21T07:03:40;7.35;;;3.72;;
75007;SDS011;63554;48.940;12.050;2023-04-21T07:07:42;6.88;;;4.10;;
75007;SDS011;63554;48.940;12.050;2023-04-21T07:11:45;7.05;;;4.40;;
75007;SDS011;63554;48.940;12.050;2023-04-21T07:15:48;7.07;;;4.15;;
75007;SDS011;63554;48.940;12.050;2023-04-21T07:19:52;6.32;;;4.30;;
75007;SDS011;63554;48.940;12.050;2023-04-21T07:23:55;7.65;;;4.10;;
75007;SDS011;63554;48.940;12.050;2023-04-21T07:27:58;8.80;;;4.65;;
75007;SDS011;63554;48.940;12.050;2023-04-21T07:32:01;11.00;;;5.20;;
75007;SDS011;63554;48.940;12.050;2023-04-21T07:36:05;8.05;;;3.42;;
75007;SDS011;63554;48.940;12.050;2023-04-21T07:40:09;7.40;;;4.03;;
75007;SDS011;63554;48.940;12.050;2023-04-21T07:44:12;9.20;;;4.35;;
75007;SDS011;63554;48.940;12.050;2023-04-21T07:48:15;6.00;;;3.03;;
75007;SDS011;63554;48.940;12.050;2023-04-21T07:52:19;7.10;;;4.50;;
75007;SDS011;63554;48.940;12.050;2023-04-21T07:56:22;7.88;;;4.32;;
75007;SDS011;63554;48.940;12.050;2023-04-21T08:00:25;7.03;;;3.67;;
75007;SDS011;63554;48.940;12.050;2023-04-21T08:04:28;4.75;;;3.40;;
75007;SDS011;63554;48.940;12.050;2023-04-21T08:08:32;6.38;;;3.95;;
75007;SDS011;63554;48.940;12.050;2023-04-21T08:12:35;6.65;;;3.25;;
75007;SDS011;63554;48.940;12.050;2023-04-21T08:16:38;4.97;;;3.13;;
75007;SDS011;63554;48.940;12.050;2023-04-21T08:20:42;4.30;;;2.63;;
75007;SDS011;63554;48.940;12.050;2023-04-21T08:24:47;4.82;;;3.25;;
75007;SDS011;63554;48.940;12.050;2023-04-21T08:28:49;5.05;;;3.00;;
75007;SDS011;63554;48.940;12.050;2023-04-21T08:32:53;5.28;;;3.22;;
75007;SDS011;63554;48.940;12.050;2023-04-21T08:36:56;5.22;;;3.33;;
75007;SDS011;63554;48.940;12.050;2023-04-21T08:41:00;6.35;;;2.85;;
75007;SDS011;63554;48.940;12.050;2023-04-21T08:45:05;6.20;;;2.90;;
75007;SDS011;63554;48.940;12.050;2023-04-21T08:49:08;3.83;;;2.83;;
75007;SDS011;63554;48.940;12.050;2023-04-21T08:53:11;3.85;;;2.50;;
75007;SDS011;63554;48.940;12.050;2023-04-21T08:57:16;3.75;;;2.47;;
75007;SDS011;63554;48.940;12.050;2023-04-21T09:01:19;4.97;;;2.72;;
75007;SDS011;63554;48.940;12.050;2023-04-21T09:05:22;9.27;;;3.38;;
75007;SDS011;63554;48.940;12.050;2023-04-21T09:09:27;4.15;;;2.78;;
75007;SDS011;63554;48.940;12.050;2023-04-21T09:13:31;4.55;;;2.92;;
75007;SDS011;63554;48.940;12.050;2023-04-21T09:17:35;4.35;;;2.70;;
75007;SDS011;63554;48.940;12.050;2023-04-21T09:21:39;3.60;;;2.72;;
75007;SDS011;63554;48.940;12.050;2023-04-21T09:25:45;4.65;;;2.85;;
75007;SDS011;63554;48.940;12.050;2023-04-21T09:29:49;4.93;;;2.33;;
75007;SDS011;63554;48.940;12.050;2023-04-21T09:33:52;5.57;;;3.05;;
75007;SDS011;63554;48.940;12.050;2023-04-21T09:38:01;4.85;;;2.80;;
75007;SDS011;63554;48.940;12.050;2023-04-21T09:42:05;7.22;;;2.80;;
75007;SDS011;63554;48.940;12.050;2023-04-21T09:46:13;3.90;;;2.78;;
75007;SDS011;63554;48.940;12.050;2023-04-21T09:50:18;4.78;;;2.80;;
75007;SDS011;63554;48.940;12.050;2023-04-21T09:54:44;4.13;;;2.28;;
75007;SDS011;63554;48.940;12.050;2023-04-21T09:58:52;6.75;;;2.33;;
75007;SDS011;63554;48.940;12.050;2023-04-21T10:02:57;2.85;;;2.25;;
75007;SDS011;63554;48.940;12.050;2023-04-21T10:07:06;6.05;;;3.03;;
75007;SDS011;63554;48.940;12.050;2023-04-21T10:11:10;5.18;;;2.47;;
75007;SDS011;63554;48.940;12.050;2023-04-21T10:15:33;5.15;;;2.38;;
75007;SDS011;63554;48.940;12.050;2023-04-21T10:19:48;4.90;;;2.47;;
75007;SDS011;63554;48.940;12.050;2023-04-21T10:23:52;4.95;;;2.97;;
75007;SDS011;63554;48.940;12.050;2023-04-21T10:27:55;3.30;;;2.28;;
75007;SDS011;63554;48.940;12.050;2023-04-21T10:31:58;5.07;;;2.53;;
75007;SDS011;63554;48.940;12.050;2023-04-21T10:36:03;2.97;;;2.00;;
75007;SDS011;63554;48.940;12.050;2023-04-21T10:44:50;2.10;;;1.63;;
75007;SDS011;63554;48.940;12.050;2023-04-21T10:48:54;2.65;;;1.73;;
75007;SDS011;63554;48.940;12.050;2023-04-21T10:53:08;2.60;;;1.73;;
75007;SDS011;63554;48.940;12.050;2023-04-21T10:57:12;2.75;;;2.05;;
75007;SDS011;63554;48.940;12.050;2023-04-21T11:01:16;3.00;;;1.92;;
75007;SDS011;63554;48.940;12.050;2023-04-21T11:05:19;2.47;;;1.70;;
75007;SDS011;63554;48.940;12.050;2023-04-21T11:09:29;2.45;;;1.73;;
75007;SDS011;63554;48.940;12.050;2023-04-21T11:13:32;3.88;;;2.10;;
75007;SDS011;63554;48.940;12.050;2023-04-21T11:17:35;3.40;;;2.00;;
75007;SDS011;63554;48.940;12.050;2023-04-21T11:21:40;2.30;;;1.70;;
75007;SDS011;63554;48.940;12.050;2023-04-21T11:25:45;3.22;;;2.03;;
75007;SDS011;63554;48.940;12.050;2023-04-21T11:29:51;3.38;;;1.92;;
75007;SDS011;63554;48.940;12.050;2023-04-21T11:33:55;2.95;;;1.70;;
75007;SDS011;63554;48.940;12.050;2023-04-21T11:38:03;3.35;;;1.88;;
75007;SDS011;63554;48.940;12.050;2023-04-21T11:42:08;2.78;;;1.55;;
75007;SDS011;63554;48.940;12.050;2023-04-21T11:46:12;2.83;;;1.85;;
75007;SDS011;63554;48.940;12.050;2023-04-21T11:50:28;2.55;;;1.60;;
75007;SDS011;63554;48.940;12.050;2023-04-21T11:54:33;3.03;;;1.98;;
75007;SDS011;63554;48.940;12.050;2023-04-21T11:58:38;2.47;;;1.70;;
75007;SDS011;63554;48.940;12.050;2023-04-21T12:02:42;3.28;;;2.13;;
75007;SDS011;63554;48.940;12.050;2023-04-21T12:06:46;3.35;;;1.95;;
75007;SDS011;63554;48.940;12.050;2023-04-21T12:10:56;3.85;;;1.73;;
75007;SDS011;63554;48.940;12.050;2023-04-21T12:15:01;2.92;;;1.85;;
75007;SDS011;63554;48.940;12.050;2023-04-21T12:19:05;3.83;;;2.22;;
75007;SDS011;63554;48.940;12.050;2023-04-21T12:23:07;2.58;;;1.83;;
75007;SDS011;63554;48.940;12.050;2023-04-21T12:27:10;2.55;;;2.00;;
75007;SDS011;63554;48.940;12.050;2023-04-21T12:31:15;2.58;;;1.60;;
75007;SDS011;63554;48.940;12.050;2023-04-21T12:35:17;2.42;;;1.50;;
75007;SDS011;63554;48.940;12.050;2023-04-21T12:39:20;2.45;;;1.55;;
75007;SDS011;63554;48.940;12.050;2023-04-21T12:43:23;1.83;;;1.52;;
75007;SDS011;63554;48.940;12.050;2023-04-21T12:47:27;2.60;;;1.05;;
75007;SDS011;63554;48.940;12.050;2023-04-21T12:51:31;2.17;;;1.10;;
75007;SDS011;63554;48.940;12.050;2023-04-21T12:55:34;1.55;;;0.98;;
75007;SDS011;63554;48.940;12.050;2023-04-21T12:59:36;2.30;;;1.20;;
75007;SDS011;63554;48.940;12.050;2023-04-21T13:03:40;1.80;;;1.13;;
75007;SDS011;63554;48.940;12.050;2023-04-21T13:07:44;2.00;;;1.10;;
75007;SDS011;63554;48.940;12.050;2023-04-21T13:11:46;2.00;;;1.30;;
75007;SDS011;63554;48.940;12.050;2023-04-21T13:15:49;1.63;;;0.93;;
75007;SDS011;63554;48.940;12.050;2023-04-21T13:19:54;1.98;;;1.25;;
75007;SDS011;63554;48.940;12.050;2023-04-21T13:23:56;2.28;;;1.30;;
75007;SDS011;63554;48.940;12.050;2023-04-21T13:27:59;1.23;;;0.93;;
75007;SDS011;63554;48.940;12.050;2023-04-21T13:32:02;2.15;;;1.40;;
75007;SDS011;63554;48.940;12.050;2023-04-21T13:36:08;2.00;;;1.35;;
75007;SDS011;63554;48.940;12.050;2023-04-21T13:40:13;2.35;;;1.42;;
75007;SDS011;63554;48.940;12.050;2023-04-21T13:44:16;1.95;;;1.25;;
75007;SDS011;63554;48.940;12.050;2023-04-21T13:48:19;2.25;;;1.38;;
75007;SDS011;63554;48.940;12.050;2023-04-21T13:52:26;1.10;;;1.00;;
75007;SDS011;63554;48.940;12.050;2023-04-21T13:56:29;1.60;;;1.25;;
75007;SDS011;63554;48.940;12.050;2023-04-21T14:00:32;2.30;;;1.27;;
75007;SDS011;63554;48.940;12.050;2023-04-21T14:04:36;1.65;;;1.10;;
75007;SDS011;63554;48.940;12.050;2023-04-21T14:08:40;2.00;;;1.35;;
75007;SDS011;63554;48.940;12.050;2023-04-21T14:12:43;1.40;;;1.13;;
75007;SDS011;63554;48.940;12.050;2023-04-21T14:16:48;1.60;;;1.23;;
75007;SDS011;63554;48.940;12.050;2023-04-21T14:20:51;1.58;;;1.20;;
75007;SDS011;63554;48.940;12.050;2023-04-21T14:24:56;6.10;;;2.30;;
75007;SDS011;63554;48.940;12.050;2023-04-21T14:28:58;2.00;;;1.10;;
75007;SDS011;63554;48.940;12.050;2023-04-21T14:33:02;1.50;;;1.10;;
75007;SDS011;63554;48.940;12.050;2023-04-21T14:37:05;1.65;;;0.93;;
75007;SDS011;63554;48.940;12.050;2023-04-21T14:41:09;1.70;;;0.95;;
75007;SDS011;63554;48.940;12.050;2023-04-21T14:45:12;1.20;;;1.00;;
75007;SDS011;63554;48.940;12.050;2023-04-21T14:49:16;1.90;;;1.25;;
75007;SDS011;63554;48.940;12.050;2023-04-21T14:53:18;2.17;;;1.23;;
75007;SDS011;63554;48.940;12.050;2023-04-21T14:57:23;1.30;;;0.73;;
75007;SDS011;63554;48.940;12.050;2023-04-21T15:01:25;1.27;;;0.93;;
75007;SDS011;63554;48.940;12.050;2023-04-21T15:05:29;1.38;;;0.85;;
75007;SDS011;63554;48.940;12.050;2023-04-21T15:09:32;0.88;;;0.70;;
75007;SDS011;63554;48.940;12.050;2023-04-21T15:13:38;1.73;;;0.95;;
75007;SDS011;63554;48.940;12.050;2023-04-21T15:17:41;1.23;;;0.90;;
75007;SDS011;63554;48.940;12.050;2023-04-21T15:21:44;2.75;;;0.93;;
75007;SDS011;63554;48.940;12.050;2023-04-21T15:25:47;2.00;;;1.00;;
75007;SDS011;63554;48.940;12.050;2023-04-21T15:29:51;1.10;;;0.95;;
75007;SDS011;63554;48.940;12.050;2023-04-21T15:33:54;1.30;;;0.88;;
75007;SDS011;63554;48.940;12.050;2023-04-21T15:37:58;1.38;;;0.98;;
75007;SDS011;63554;48.940;12.050;2023-04-21T15:42:01;0.93;;;0.82;;
75007;SDS011;63554;48.940;12.050;2023-04-21T15:46:06;1.45;;;1.00;;
75007;SDS011;63554;48.940;12.050;2023-04-21T15:50:14;1.50;;;1.02;;
75007;SDS011;63554;48.940;12.050;2023-04-21T15:54:16;1.95;;;1.13;;
75007;SDS011;63554;48.940;12.050;2023-04-21T15:58:19;1.42;;;1.00;;
75007;SDS011;63554;48.940;12.050;2023-04-21T16:02:23;1.50;;;1.00;;
75007;SDS011;63554;48.940;12.050;2023-04-21T16:06:27;1.20;;;0.75;;
75007;SDS011;63554;48.940;12.050;2023-04-21T16:10:31;1.80;;;0.80;;
75007;SDS011;63554;48.940;12.050;2023-04-21T16:14:33;1.38;;;1.10;;
75007;SDS011;63554;48.940;12.050;2023-04-21T16:18:58;1.58;;;0.93;;
75007;SDS011;63554;48.940;12.050;2023-04-21T16:23:00;1.60;;;1.13;;
75007;SDS011;63554;48.940;12.050;2023-04-21T16:27:06;2.50;;;0.95;;
75007;SDS011;63554;48.940;12.050;2023-04-21T16:31:09;2.38;;;1.25;;
75007;SDS011;63554;48.940;12.050;2023-04-21T16:35:13;1.27;;;0.93;;
75007;SDS011;63554;48.940;12.050;2023-04-21T16:39:16;1.77;;;1.33;;
75007;SDS011;63554;48.940;12.050;2023-04-21T16:43:19;1.60;;;1.20;;
75007;SDS011;63554;48.940;12.050;2023-04-21T16:47:21;1.40;;;1.13;;
75007;SDS011;63554;48.940;12.050;2023-04-21T16:51:26;1.52;;;1.02;;
75007;SDS011;63554;48.940;12.050;2023-04-21T16:55:29;4.13;;;1.10;;
75007;SDS011;63554;48.940;12.050;2023-04-21T16:59:32;2.17;;;1.20;;
75007;SDS011;63554;48.940;12.050;2023-04-21T17:03:34;2.25;;;1.10;;
75007;SDS011;63554;48.940;12.050;2023-04-21T17:07:39;1.48;;;1.10;;
75007;SDS011;63554;48.940;12.050;2023-04-21T17:11:42;2.22;;;1.20;;
75007;SDS011;63554;48.940;12.050;2023-04-21T17:15:46;1.77;;;1.20;;
75007;SDS011;63554;48.940;12.050;2023-04-21T17:19:49;3.13;;;1.20;;
75007;SDS011;63554;48.940;12.050;2023-04-21T17:23:55;2.10;;;1.20;;
75007;SDS011;63554;48.940;12.050;2023-04-21T17:27:57;2.53;;;1.17;;
75007;SDS011;63554;48.940;12.050;2023-04-21T17:32:00;2.20;;;1.25;;
75007;SDS011;63554;48.940;12.050;2023-04-21T17:36:04;1.60;;;1.10;;
75007;SDS011;63554;48.940;12.050;2023-04-21T17:40:09;1.65;;;0.95;;
75007;SDS011;63554;48.940;12.050;2023-04-21T17:44:12;2.10;;;1.33;;
75007;SDS011;63554;48.940;12.050;2023-04-21T17:48:14;1.13;;;1.00;;
75007;SDS011;63554;48.940;12.050;2023-04-21T17:52:17;1.33;;;1.00;;
75007;SDS011;63554;48.940;12.050;2023-04-21T17:56:21;3.35;;;2.00;;
75007;SDS011;63554;48.940;12.050;2023-04-21T18:00:24;3.10;;;1.25;;
75007;SDS011;63554;48.940;12.050;2023-04-21T18:04:28;2.35;;;1.70;;
75007;SDS011;63554;48.940;12.050;2023-04-21T18:08:34;2.13;;;1.65;;
75007;SDS011;63554;48.940;12.050;2023-04-21T18:12:38;1.67;;;1.27;;
75007;SDS011;63554;48.940;12.050;2023-04-21T18:16:41;2.40;;;1.65;;
75007;SDS011;63554;48.940;12.050;2023-04-21T18:20:44;2.97;;;1.52;;
75007;SDS011;63554;48.940;12.050;2023-04-21T18:24:46;2.65;;;1.73;;
75007;SDS011;63554;48.940;12.050;2023-04-21T18:28:50;2.05;;;1.25;;
75007;SDS011;63554;48.940;12.050;2023-04-21T18:32:54;2.70;;;1.50;;
75007;SDS011;63554;48.940;12.050;2023-04-21T18:36:57;4.55;;;2.95;;
75007;SDS011;63554;48.940;12.050;2023-04-21T18:41:00;2.72;;;1.95;;
75007;SDS011;63554;48.940;12.050;2023-04-21T18:45:04;2.13;;;1.58;;
75007;SDS011;63554;48.940;12.050;2023-04-21T18:49:08;5.80;;;1.63;;
75007;SDS011;63554;48.940;12.050;2023-04-21T18:53:10;2.53;;;1.77;;
75007;SDS011;63554;48.940;12.050;2023-04-21T18:57:13;2.85;;;2.10;;
75007;SDS011;63554;48.940;12.050;2023-04-21T19:01:17;4.07;;;2.45;;
75007;SDS011;63554;48.940;12.050;2023-04-21T19:05:20;3.10;;;2.28;;
75007;SDS011;63554;48.940;12.050;2023-04-21T19:09:23;3.00;;;2.10;;
75007;SDS011;63554;48.940;12.050;2023-04-21T19:13:27;6.03;;;2.92;;
75007;SDS011;63554;48.940;12.050;2023-04-21T19:17:31;3.58;;;2.28;;
75007;SDS011;63554;48.940;12.050;2023-04-21T19:21:34;4.07;;;1.67;;
75007;SDS011;63554;48.940;12.050;2023-04-21T19:25:37;3.90;;;2.13;;
75007;SDS011;63554;48.940;12.050;2023-04-21T19:29:39;5.80;;;2.17;;
75007;SDS011;63554;48.940;12.050;2023-04-21T19:33:44;4.40;;;2.40;;
75007;SDS011;63554;48.940;12.050;2023-04-21T19:37:46;5.57;;;2.13;;
75007;SDS011;63554;48.940;12.050;2023-04-21T19:41:49;2.78;;;2.17;;
75007;SDS011;63554;48.940;12.050;2023-04-21T19:45:52;3.85;;;2.33;;
75007;SDS011;63554;48.940;12.050;2023-04-21T19:49:56;3.67;;;1.92;;
75007;SDS011;63554;48.940;12.050;2023-04-21T19:53:59;3.65;;;1.90;;
75007;SDS011;63554;48.940;12.050;2023-04-21T19:58:11;3.00;;;1.42;;
75007;SDS011;63554;48.940;12.050;2023-04-21T20:02:28;1.88;;;1.42;;
75007;SDS011;63554;48.940;12.050;2023-04-21T20:06:33;2.22;;;1.55;;
75007;SDS011;63554;48.940;12.050;2023-04-21T20:10:35;2.78;;;1.98;;
75007;SDS011;63554;48.940;12.050;2023-04-21T20:14:43;4.22;;;2.05;;
75007;SDS011;63554;48.940;12.050;2023-04-21T20:18:46;3.08;;;1.92;;
75007;SDS011;63554;48.940;12.050;2023-04-21T20:22:51;3.55;;;2.03;;
75007;SDS011;63554;48.940;12.050;2023-04-21T20:26:53;2.28;;;1.95;;
75007;SDS011;63554;48.940;12.050;2023-04-21T20:30:56;2.33;;;1.77;;
75007;SDS011;63554;48.940;12.050;2023-04-21T20:34:59;3.15;;;1.73;;
75007;SDS011;63554;48.940;12.050;2023-04-21T20:39:04;2.95;;;1.92;;
75007;SDS011;63554;48.940;12.050;2023-04-21T20:43:07;2.88;;;1.85;;
75007;SDS011;63554;48.940;12.050;2023-04-21T20:47:10;2.47;;;2.08;;
75007;SDS011;63554;48.940;12.050;2023-04-21T20:51:13;1.90;;;1.50;;
75007;SDS011;63554;48.940;12.050;2023-04-21T20:55:17;2.80;;;1.38;;
75007;SDS011;63554;48.940;12.050;2023-04-21T20:59:20;2.22;;;1.58;;
75007;SDS011;63554;48.940;12.050;2023-04-21T21:03:22;4.75;;;2.03;;
75007;SDS011;63554;48.940;12.050;2023-04-21T21:07:26;2.28;;;1.50;;
75007;SDS011;63554;48.940;12.050;2023-04-21T21:11:31;3.85;;;2.15;;
75007;SDS011;63554;48.940;12.050;2023-04-21T21:15:34;3.05;;;1.67;;
75007;SDS011;63554;48.940;12.050;2023-04-21T21:19:36;2.28;;;1.55;;
75007;SDS011;63554;48.940;12.050;2023-04-21T21:23:40;2.10;;;1.55;;
75007;SDS011;63554;48.940;12.050;2023-04-21T21:27:45;4.00;;;2.40;;
75007;SDS011;63554;48.940;12.050;2023-04-21T21:31:48;3.50;;;1.85;;
75007;SDS011;63554;48.940;12.050;2023-04-21T21:35:51;3.08;;;2.13;;
75007;SDS011;63554;48.940;12.050;2023-04-21T21:39:53;4.28;;;2.08;;
75007;SDS011;63554;48.940;12.050;2023-04-21T21:43:58;3.35;;;2.15;;
75007;SDS011;63554;48.940;12.050;2023-04-21T21:48:00;3.80;;;2.28;;
75007;SDS011;63554;48.940;12.050;2023-04-21T21:52:03;4.30;;;2.33;;
75007;SDS011;63554;48.940;12.050;2023-04-21T21:56:06;3.80;;;2.17;;
75007;SDS011;63554;48.940;12.050;2023-04-21T22:00:11;3.63;;;2.10;;
75007;SDS011;63554;48.940;12.050;2023-04-21T22:04:14;3.03;;;2.28;;
75007;SDS011;63554;48.940;12.050;2023-04-21T22:08:17;2.85;;;1.85;;
75007;SDS011;63554;48.940;12.050;2023-04-21T22:12:20;3.78;;;2.13;;
75007;SDS011;63554;48.940;12.050;2023-04-21T22:16:24;2.72;;;2.15;;
75007;SDS011;63554;48.940;12.050;2023-04-21T22:20:29;4.38;;;2.00;;
75007;SDS011;63554;48.940;12.050;2023-04-21T22:24:32;5.13;;;2.40;;
75007;SDS011;63554;48.940;12.050;2023-04-21T22:28:34;2.95;;;2.10;;
75007;SDS011;63554;48.940;12.050;2023-04-21T22:32:38;5.32;;;2.28;;
75007;SDS011;63554;48.940;12.050;2023-04-21T22:36:41;2.60;;;1.88;;
75007;SDS011;63554;48.940;12.050;2023-04-21T22:40:44;3.13;;;2.10;;
75007;SDS011;63554;48.940;12.050;2023-04-21T22:44:47;3.05;;;1.98;;
75007;SDS011;63554;48.940;12.050;2023-04-21T22:48:51;3.58;;;2.38;;
75007;SDS011;63554;48.940;12.050;2023-04-21T22:52:54;4.30;;;2.47;;
75007;SDS011;63554;48.940;12.050;2023-04-21T22:56:57;3.55;;;2.53;;
75007;SDS011;63554;48.940;12.050;2023-04-21T23:01:00;3.78;;;2.20;;
75007;SDS011;63554;48.940;12.050;2023-04-21T23:05:05;3.67;;;2.20;;
75007;SDS011;63554;48.940;12.050;2023-04-21T23:09:08;4.03;;;3.00;;
75007;SDS011;63554;48.940;12.050;2023-04-21T23:13:10;5.18;;;2.13;;
75007;SDS011;63554;48.940;12.050;2023-04-21T23:17:13;4.40;;;2.20;;
75007;SDS011;63554;48.940;12.050;2023-04-21T23:21:17;4.20;;;2.30;;
75007;SDS011;63554;48.940;12.050;2023-04-21T23:25:20;5.47;;;3.30;;
75007;SDS011;63554;48.940;12.050;2023-04-21T23:29:23;5.25;;;3.63;;
75007;SDS011;63554;48.940;12.050;2023-04-21T23:33:25;6.80;;;4.00;;
75007;SDS011;63554;48.940;12.050;2023-04-21T23:37:29;4.45;;;3.30;;
75007;SDS011;63554;48.940;12.050;2023-04-21T23:41:32;4.03;;;2.28;;
75007;SDS011;63554;48.940;12.050;2023-04-21T23:45:34;3.13;;;2.30;;
75007;SDS011;63554;48.940;12.050;2023-04-21T23:49:37;4.10;;;2.97;;
75007;SDS011;63554;48.940;12.050;2023-04-21T23:53:42;4.93;;;2.60;;
75007;SDS011;63554;48.940;12.050;2023-04-21T23:57:46;4.32;;;2.30;;
